Time;durP1;ratioP1;P1;durP2;ratioP2;P2;SDS_P1;SDS_P2;PMS_P1;PMS_P2;Temp;Humidity;BMP_temperature;BMP_pressure;BME280_temperature;BME280_humidity;BME280_pressure;Samples;Min_cycle;Max_cycle;Signal;HPM_P1;HPM_P2
2024/01/26 00:01:41;;;;;;;0.40;0.40;;;12.50;68.80;;;;;;5094498;28;20040;-70
2024/01/26 00:04:06;;;;;;;0.80;0.80;;;12.50;68.90;;;;;;5094033;28;20373;-70
2024/01/26 00:06:32;;;;;;;0.65;0.65;;;12.50;68.90;;;;;;5094255;28;20085;-70
2024/01/26 00:09:10;;;;;;;0.75;0.75;;;12.50;68.70;;;;;;5093997;28;20067;-70
2024/01/26 00:11:37;;;;;;;0.80;0.80;;;12.50;68.80;;;;;;5094293;28;20479;-70
2024/01/26 00:14:03;;;;;;;0.50;0.50;;;12.50;68.90;;;;;;5093981;28;20059;-70
2024/01/26 00:16:29;;;;;;;1.98;1.88;;;12.50;69.10;;;;;;5094154;28;20441;-70
2024/01/26 00:18:54;;;;;;;1.75;1.58;;;12.50;69.20;;;;;;5094227;28;20032;-70
2024/01/26 00:21:19;;;;;;;0.50;0.50;;;12.50;69.30;;;;;;5094446;28;20036;-70
2024/01/26 00:23:45;;;;;;;0.77;0.77;;;12.50;69.30;;;;;;5093984;28;20082;-70
2024/01/26 00:26:13;;;;;;;0.98;0.93;;;12.50;69.30;;;;;;5094269;28;20028;-70
2024/01/26 00:28:39;;;;;;;0.65;0.65;;;12.50;69.20;;;;;;5093967;28;20039;-71
2024/01/26 00:31:05;;;;;;;0.60;0.60;;;12.50;69.30;;;;;;5094366;28;20032;-71
2024/01/26 00:33:31;;;;;;;0.57;0.57;;;12.50;69.40;;;;;;5093997;28;20388;-72
2024/01/26 00:35:56;;;;;;;0.60;0.60;;;12.50;69.60;;;;;;5094219;28;20479;-73
2024/01/26 00:38:22;;;;;;;1.08;1.00;;;12.50;69.60;;;;;;5092963;28;20089;-73
2024/01/26 00:40:48;;;;;;;0.70;0.70;;;12.50;69.60;;;;;;5094119;28;20123;-73
2024/01/26 00:43:13;;;;;;;0.60;0.60;;;12.50;69.90;;;;;;5093673;28;20111;-73
2024/01/26 00:45:39;;;;;;;0.73;0.73;;;12.50;69.80;;;;;;5093845;28;20028;-72
2024/01/26 00:48:05;;;;;;;0.95;0.77;;;12.50;69.80;;;;;;5092343;28;20035;-71
2024/01/26 00:50:31;;;;;;;0.75;0.75;;;12.50;69.90;;;;;;5093673;28;20065;-74
2024/01/26 00:52:57;;;;;;;0.80;0.80;;;12.50;69.90;;;;;;5093584;28;20075;-75
2024/01/26 00:55:23;;;;;;;0.70;0.70;;;12.50;70.00;;;;;;5093632;28;20020;-75
2024/01/26 00:57:49;;;;;;;0.60;0.60;;;12.50;70.00;;;;;;5092124;28;20033;-75
2024/01/26 01:00:15;;;;;;;1.23;1.02;;;12.50;70.20;;;;;;5093430;28;20053;-75
2024/01/26 01:02:40;;;;;;;1.75;1.05;;;12.50;70.10;;;;;;5093287;28;20487;-75
2024/01/26 01:05:06;;;;;;;0.50;0.50;;;12.50;70.30;;;;;;5093039;28;20039;-75
2024/01/26 01:07:32;;;;;;;0.60;0.60;;;12.50;70.30;;;;;;5093427;28;20029;-75
2024/01/26 01:09:57;;;;;;;0.50;0.50;;;12.50;70.30;;;;;;5092271;28;20024;-75
2024/01/26 01:12:23;;;;;;;1.15;1.10;;;12.60;70.20;;;;;;5093050;28;20028;-75
2024/01/26 01:14:49;;;;;;;0.50;0.50;;;12.60;70.20;;;;;;5093088;28;20027;-75
2024/01/26 01:17:14;;;;;;;0.80;0.80;;;12.60;70.30;;;;;;5092919;28;20153;-76
2024/01/26 01:19:40;;;;;;;0.73;0.73;;;12.70;70.30;;;;;;5093032;28;20036;-76
2024/01/26 01:22:05;;;;;;;0.50;0.50;;;12.60;70.30;;;;;;5093098;28;20067;-76
2024/01/26 01:24:31;;;;;;;0.68;0.68;;;12.60;70.30;;;;;;5092884;28;20034;-76
2024/01/26 01:26:57;;;;;;;1.30;1.23;;;12.60;70.50;;;;;;5092792;28;20479;-76
2024/01/26 01:29:22;;;;;;;0.93;0.90;;;12.70;70.50;;;;;;5091401;28;20036;-76
2024/01/26 01:31:48;;;;;;;1.30;1.23;;;12.70;70.60;;;;;;5092722;28;20029;-75
2024/01/26 01:34:13;;;;;;;0.65;0.65;;;12.70;70.70;;;;;;5092482;28;20017;-75
2024/01/26 01:36:39;;;;;;;0.57;0.57;;;12.70;70.60;;;;;;5092932;28;20032;-75
2024/01/26 01:39:04;;;;;;;0.75;0.73;;;12.70;70.60;;;;;;5092637;28;20035;-75
2024/01/26 01:41:30;;;;;;;2.42;1.50;;;12.70;70.50;;;;;;5092487;28;20040;-76
2024/01/26 01:43:56;;;;;;;0.50;0.50;;;12.70;70.60;;;;;;5092489;28;20059;-76
2024/01/26 01:46:22;;;;;;;0.60;0.60;;;12.70;70.60;;;;;;5092729;28;20502;-76
2024/01/26 01:48:49;;;;;;;0.60;0.60;;;12.80;70.60;;;;;;5090987;28;20485;-75
2024/01/26 01:51:15;;;;;;;0.60;0.60;;;12.80;70.60;;;;;;5092833;28;20028;-75
2024/01/26 01:53:42;;;;;;;0.68;0.68;;;12.80;70.50;;;;;;5092953;28;20078;-75
2024/01/26 01:56:11;;;;;;;0.60;0.60;;;12.80;70.60;;;;;;5093125;28;20028;-75
2024/01/26 01:58:39;;;;;;;0.60;0.60;;;12.80;70.60;;;;;;5092612;28;20123;-75
2024/01/26 02:01:05;;;;;;;0.85;0.85;;;12.90;70.60;;;;;;5093002;28;20028;-75
2024/01/26 02:03:30;;;;;;;0.80;0.80;;;12.80;70.60;;;;;;5093010;28;20398;-74
2024/01/26 02:05:56;;;;;;;0.75;0.75;;;12.80;70.60;;;;;;5092755;28;20039;-75
2024/01/26 02:08:22;;;;;;;0.40;0.40;;;12.90;70.60;;;;;;5091999;28;20075;-75
2024/01/26 02:10:47;;;;;;;0.70;0.70;;;12.90;70.70;;;;;;5092501;28;20059;-75
2024/01/26 02:13:13;;;;;;;0.52;0.52;;;12.90;70.70;;;;;;5092134;28;20023;-75
2024/01/26 02:15:41;;;;;;;0.50;0.50;;;12.90;70.70;;;;;;5092663;28;20372;-74
2024/01/26 02:18:07;;;;;;;0.60;0.60;;;13.00;70.80;;;;;;5092351;28;20077;-75
2024/01/26 02:20:32;;;;;;;0.85;0.85;;;13.00;70.70;;;;;;5092379;28;20058;-75
2024/01/26 02:22:58;;;;;;;0.57;0.57;;;13.00;70.60;;;;;;5091650;28;20024;-74
2024/01/26 02:25:23;;;;;;;1.42;1.33;;;13.00;70.60;;;;;;5092141;28;20039;-75
2024/01/26 02:27:52;;;;;;;0.55;0.55;;;13.00;70.70;;;;;;5090934;28;20043;-73
2024/01/26 02:30:18;;;;;;;0.85;0.85;;;13.00;70.70;;;;;;5090710;28;20498;-73
2024/01/26 02:32:43;;;;;;;0.60;0.60;;;13.00;70.80;;;;;;5091787;28;20025;-73
2024/01/26 02:35:10;;;;;;;1.00;1.00;;;13.00;70.80;;;;;;5091749;28;20036;-73
2024/01/26 02:37:35;;;;;;;0.75;0.75;;;13.00;70.70;;;;;;5091693;28;20157;-73
2024/01/26 02:40:01;;;;;;;0.60;0.60;;;13.00;70.70;;;;;;5091389;28;20535;-73
2024/01/26 02:42:26;;;;;;;0.52;0.52;;;13.00;70.70;;;;;;5091734;28;20024;-73
2024/01/26 02:44:52;;;;;;;0.50;0.50;;;13.10;70.70;;;;;;5091862;28;20032;-73
2024/01/26 02:47:17;;;;;;;0.70;0.70;;;13.10;70.80;;;;;;5091461;28;20028;-73
2024/01/26 02:49:43;;;;;;;0.73;0.68;;;13.10;70.70;;;;;;5091565;28;20036;-73
2024/01/26 02:52:09;;;;;;;0.45;0.45;;;13.10;70.80;;;;;;5091329;28;20215;-73
2024/01/26 02:54:34;;;;;;;0.82;0.82;;;13.10;70.70;;;;;;5090211;28;20042;-73
2024/01/26 02:57:00;;;;;;;0.50;0.50;;;13.10;70.70;;;;;;5091284;28;20025;-73
2024/01/26 02:59:25;;;;;;;0.80;0.80;;;13.20;70.80;;;;;;5091491;28;20036;-73
2024/01/26 03:01:51;;;;;;;0.65;0.65;;;13.20;70.80;;;;;;5091364;28;20047;-72
2024/01/26 03:04:18;;;;;;;0.43;0.43;;;13.20;70.90;;;;;;5089801;28;20437;-72
2024/01/26 03:06:45;;;;;;;0.82;0.82;;;13.20;70.90;;;;;;5091428;28;20036;-73
2024/01/26 03:09:10;;;;;;;0.70;0.70;;;13.20;71.00;;;;;;5091063;28;20119;-72
2024/01/26 03:11:40;;;;;;;0.63;0.60;;;13.30;71.00;;;;;;5091319;28;20502;-72
2024/01/26 03:14:07;;;;;;;;;;;13.30;71.00;;;;;;5091624;28;20044;-73
2024/01/26 03:16:33;;;;;;;0.70;0.70;;;13.30;70.90;;;;;;5091301;28;19935;-72
2024/01/26 03:18:59;;;;;;;0.75;0.75;;;13.30;70.90;;;;;;5091460;28;20022;-73
2024/01/26 03:21:25;;;;;;;0.60;0.60;;;13.30;71.10;;;;;;5091680;28;20028;-72
2024/01/26 03:23:50;;;;;;;0.88;0.88;;;13.30;71.20;;;;;;5091120;28;20044;-73
2024/01/26 03:26:15;;;;;;;0.80;0.80;;;13.40;71.20;;;;;;5091538;28;20040;-72
2024/01/26 03:28:41;;;;;;;0.52;0.52;;;13.40;71.20;;;;;;5091025;28;20047;-72
2024/01/26 03:31:06;;;;;;;0.60;0.60;;;13.40;71.10;;;;;;5091431;28;20095;-72
2024/01/26 03:33:35;;;;;;;1.90;1.23;;;13.50;71.10;;;;;;5092207;28;20028;-72
2024/01/26 03:36:01;;;;;;;0.55;0.55;;;13.50;71.10;;;;;;5095455;28;20059;-72
2024/01/26 03:38:26;;;;;;;0.63;0.63;;;13.50;71.20;;;;;;5093976;28;20082;-72
2024/01/26 03:40:52;;;;;;;0.98;0.90;;;13.50;71.20;;;;;;5094999;28;20036;-72
2024/01/26 03:43:18;;;;;;;0.90;0.90;;;13.50;71.20;;;;;;5094705;28;20111;-72
2024/01/26 03:45:43;;;;;;;0.80;0.80;;;13.60;71.20;;;;;;5095092;28;20082;-72
2024/01/26 03:48:09;;;;;;;0.70;0.70;;;13.60;71.20;;;;;;5094608;28;20047;-72
2024/01/26 03:50:34;;;;;;;0.50;0.50;;;13.60;71.20;;;;;;5093619;28;20406;-72
2024/01/26 03:53:00;;;;;;;0.68;0.68;;;13.70;71.30;;;;;;5094684;28;20028;-72
2024/01/26 03:55:25;;;;;;;0.57;0.57;;;13.70;71.20;;;;;;5094717;28;20028;-72
2024/01/26 03:57:50;;;;;;;0.63;0.63;;;13.70;71.30;;;;;;5094549;28;20043;-72
2024/01/26 04:00:17;;;;;;;0.70;0.70;;;13.70;71.30;;;;;;5094633;28;20109;-72
2024/01/26 04:02:42;;;;;;;0.93;0.93;;;13.80;71.20;;;;;;5094537;28;20032;-72
2024/01/26 04:05:08;;;;;;;0.90;0.90;;;13.80;71.30;;;;;;5094668;28;20055;-72
2024/01/26 04:07:35;;;;;;;0.47;0.47;;;13.80;71.30;;;;;;5094290;28;20020;-72
2024/01/26 04:10:00;;;;;;;0.50;0.50;;;13.80;71.20;;;;;;5094437;28;20515;-72
2024/01/26 04:12:26;;;;;;;0.90;0.90;;;13.80;71.30;;;;;;5093087;28;20090;-72
2024/01/26 04:14:51;;;;;;;1.30;1.25;;;13.90;71.20;;;;;;5094259;28;20375;-72
2024/01/26 04:17:17;;;;;;;0.70;0.70;;;13.90;71.30;;;;;;5094155;28;20073;-72
2024/01/26 04:19:42;;;;;;;0.55;0.55;;;14.00;71.20;;;;;;5094550;28;20379;-71
2024/01/26 04:22:08;;;;;;;0.60;0.60;;;14.00;71.20;;;;;;5094011;28;20446;-71
2024/01/26 04:24:36;;;;;;;1.88;1.60;;;14.00;71.00;;;;;;5094080;28;20123;-71
2024/01/26 04:27:02;;;;;;;0.70;0.70;;;13.90;71.10;;;;;;5094039;28;20028;-71
2024/01/26 04:29:27;;;;;;;0.93;0.93;;;14.00;71.10;;;;;;5094042;28;20463;-71
2024/01/26 04:31:53;;;;;;;1.85;1.33;;;14.00;71.10;;;;;;5092535;28;20028;-71
2024/01/26 04:34:19;;;;;;;0.57;0.57;;;14.00;71.00;;;;;;5093886;28;20494;-71
2024/01/26 04:36:46;;;;;;;0.93;0.93;;;14.00;71.10;;;;;;5094079;28;20024;-71
2024/01/26 04:39:12;;;;;;;0.93;0.93;;;14.00;71.00;;;;;;5093920;28;20486;-71
2024/01/26 04:41:38;;;;;;;0.55;0.55;;;14.00;71.10;;;;;;5092754;28;20028;-71
2024/01/26 04:44:03;;;;;;;3.08;1.10;;;14.00;71.10;;;;;;5093203;28;20099;-71
2024/01/26 04:46:29;;;;;;;0.75;0.75;;;14.00;71.10;;;;;;5093644;28;20125;-71
2024/01/26 04:48:54;;;;;;;0.50;0.50;;;14.00;71.20;;;;;;5093575;28;20024;-71
2024/01/26 04:51:20;;;;;;;0.95;0.95;;;14.00;71.20;;;;;;5093877;28;20032;-71
2024/01/26 04:53:45;;;;;;;0.63;0.63;;;14.00;71.20;;;;;;5093881;28;20472;-71
2024/01/26 04:56:11;;;;;;;0.70;0.70;;;14.10;71.30;;;;;;5093885;28;20036;-71
2024/01/26 04:58:37;;;;;;;0.60;0.60;;;14.10;71.20;;;;;;5093477;28;20571;-71
2024/01/26 05:01:04;;;;;;;1.05;1.05;;;14.20;71.30;;;;;;5093715;28;20028;-71
2024/01/26 05:03:30;;;;;;;0.60;0.60;;;14.10;71.20;;;;;;5093521;28;20034;-71
2024/01/26 05:05:55;;;;;;;0.90;0.90;;;14.20;71.30;;;;;;5093432;28;20028;-71
2024/01/26 05:08:21;;;;;;;0.70;0.70;;;14.20;71.30;;;;;;5093034;28;20028;-71
2024/01/26 05:10:46;;;;;;;0.90;0.90;;;14.20;71.10;;;;;;5092103;28;20024;-71
2024/01/26 05:13:12;;;;;;;0.57;0.57;;;14.30;71.20;;;;;;5093079;28;20035;-71
2024/01/26 05:15:37;;;;;;;0.82;0.82;;;14.30;71.10;;;;;;5093344;28;20107;-71
2024/01/26 05:18:03;;;;;;;0.80;0.80;;;14.20;71.10;;;;;;5093063;28;20035;-71
2024/01/26 05:20:29;;;;;;;0.80;0.80;;;14.30;71.10;;;;;;5093225;28;20020;-71
2024/01/26 05:22:55;;;;;;;0.82;0.82;;;14.30;71.10;;;;;;5092887;28;20153;-71
2024/01/26 05:25:20;;;;;;;0.47;0.47;;;14.30;71.10;;;;;;5093106;28;20043;-71
2024/01/26 05:27:46;;;;;;;0.80;0.80;;;14.30;71.00;;;;;;5093157;28;20113;-71
2024/01/26 05:30:12;;;;;;;8.32;1.48;;;14.30;71.20;;;;;;5092980;28;20028;-72
2024/01/26 05:32:37;;;;;;;1.92;1.60;;;14.30;71.10;;;;;;5092802;28;20028;-72
2024/01/26 05:35:03;;;;;;;2.55;1.23;;;14.30;71.10;;;;;;5091672;28;20577;-72
2024/01/26 05:37:29;;;;;;;0.70;0.70;;;14.30;71.10;;;;;;5092846;28;20032;-72
2024/01/26 05:39:54;;;;;;;0.65;0.65;;;14.30;71.10;;;;;;5092619;28;20099;-72
2024/01/26 05:42:20;;;;;;;0.82;0.82;;;14.40;71.20;;;;;;5092879;28;20510;-72
2024/01/26 05:44:45;;;;;;;0.68;0.68;;;14.40;71.10;;;;;;5092288;28;20032;-72
2024/01/26 05:47:11;;;;;;;0.73;0.73;;;14.40;71.10;;;;;;5091234;28;20365;-72
2024/01/26 05:49:36;;;;;;;0.90;0.90;;;14.30;71.00;;;;;;5092517;28;20028;-72
2024/01/26 05:52:02;;;;;;;1.23;0.88;;;14.30;71.00;;;;;;5092423;28;20099;-72
2024/01/26 05:54:30;;;;;;;2.25;1.70;;;14.40;71.10;;;;;;5092473;28;20421;-72
2024/01/26 05:56:55;;;;;;;1.20;1.10;;;14.40;71.10;;;;;;5091748;28;20035;-72
2024/01/26 05:59:21;;;;;;;1.05;1.05;;;14.40;71.10;;;;;;5092497;28;20032;-73
2024/01/26 06:01:46;;;;;;;0.77;0.77;;;14.40;71.20;;;;;;5092250;28;20036;-73
2024/01/26 06:04:12;;;;;;;0.77;0.77;;;14.40;71.30;;;;;;5091974;28;20032;-74
2024/01/26 06:06:37;;;;;;;0.60;0.60;;;14.40;71.30;;;;;;5090745;28;20035;-74
2024/01/26 06:09:03;;;;;;;0.60;0.60;;;14.50;71.30;;;;;;5091715;28;20043;-73
2024/01/26 06:11:29;;;;;;;0.77;0.77;;;14.50;71.20;;;;;;5092040;28;20438;-73
2024/01/26 06:13:54;;;;;;;0.82;0.82;;;14.50;71.30;;;;;;5092278;28;20490;-73
2024/01/26 06:16:20;;;;;;;0.60;0.60;;;14.50;71.00;;;;;;5092598;28;20486;-74
2024/01/26 06:18:46;;;;;;;0.40;0.40;;;14.50;71.10;;;;;;5090670;28;20044;-73
2024/01/26 06:21:11;;;;;;;0.60;0.60;;;14.50;71.10;;;;;;5092457;28;20024;-74
2024/01/26 06:23:38;;;;;;;0.60;0.60;;;14.50;71.10;;;;;;5091817;28;20392;-74
2024/01/26 06:26:03;;;;;;;0.63;0.63;;;14.60;71.10;;;;;;5092190;28;20024;-74
2024/01/26 06:28:29;;;;;;;0.57;0.57;;;14.60;71.10;;;;;;5091823;28;20047;-74
2024/01/26 06:30:55;;;;;;;0.60;0.60;;;14.60;71.00;;;;;;5092139;28;20024;-74
2024/01/26 06:33:20;;;;;;;0.50;0.50;;;14.60;71.00;;;;;;5091859;28;20050;-73
2024/01/26 06:35:46;;;;;;;0.57;0.57;;;14.60;71.00;;;;;;5091944;28;20028;-74
2024/01/26 06:38:12;;;;;;;0.80;0.80;;;14.60;71.00;;;;;;5091684;28;20024;-74
2024/01/26 06:40:38;;;;;;;0.68;0.68;;;14.60;70.80;;;;;;5091974;28;20367;-74
2024/01/26 06:43:06;;;;;;;0.65;0.65;;;14.60;70.90;;;;;;5091639;28;20036;-74
2024/01/26 06:45:32;;;;;;;0.88;0.88;;;14.60;70.90;;;;;;5091500;28;20016;-74
2024/01/26 06:47:58;;;;;;;0.70;0.70;;;14.60;70.90;;;;;;5091801;28;20020;-74
2024/01/26 06:50:23;;;;;;;0.70;0.70;;;14.60;70.90;;;;;;5091685;28;20371;-74
2024/01/26 06:52:49;;;;;;;0.80;0.80;;;14.60;70.90;;;;;;5091427;28;20028;-74
2024/01/26 06:55:14;;;;;;;0.73;0.73;;;14.60;71.00;;;;;;5091562;28;20028;-74
2024/01/26 06:57:40;;;;;;;0.45;0.45;;;14.60;70.90;;;;;;5091516;28;20036;-74
2024/01/26 07:00:07;;;;;;;0.52;0.52;;;14.60;70.80;;;;;;5091469;28;20035;-74
2024/01/26 07:02:33;;;;;;;0.80;0.80;;;14.60;70.80;;;;;;5091262;28;20453;-73
2024/01/26 07:04:59;;;;;;;0.52;0.52;;;14.60;70.90;;;;;;5091686;28;20054;-74
2024/01/26 07:07:24;;;;;;;1.20;0.95;;;14.60;70.70;;;;;;5092126;28;20032;-73
2024/01/26 07:09:50;;;;;;;1.35;1.25;;;14.70;70.90;;;;;;5095561;28;20031;-73
2024/01/26 07:12:15;;;;;;;0.52;0.52;;;14.70;70.80;;;;;;5094414;28;20418;-74
2024/01/26 07:14:41;;;;;;;0.50;0.50;;;14.70;70.80;;;;;;5095468;28;20020;-71
2024/01/26 07:17:06;;;;;;;0.80;0.80;;;14.70;70.70;;;;;;5095371;28;20032;-71
2024/01/26 07:19:32;;;;;;;0.50;0.50;;;14.70;70.80;;;;;;5095566;28;20387;-71
2024/01/26 07:21:57;;;;;;;0.50;0.50;;;14.70;70.90;;;;;;5095305;28;20120;-74
2024/01/26 07:24:23;;;;;;;0.80;0.80;;;14.70;70.70;;;;;;5095236;28;20036;-74
2024/01/26 07:26:49;;;;;;;0.70;0.70;;;14.70;70.70;;;;;;5095309;28;20056;-74
2024/01/26 07:29:14;;;;;;;0.85;0.85;;;14.70;70.60;;;;;;5094986;28;20039;-73
2024/01/26 07:31:41;;;;;;;1.02;1.00;;;14.80;70.60;;;;;;5095403;28;20384;-74
2024/01/26 07:34:06;;;;;;;0.70;0.70;;;14.80;70.70;;;;;;5095153;28;20149;-74
2024/01/26 07:36:36;;;;;;;1.13;1.05;;;14.80;70.70;;;;;;5095096;28;20519;-74
2024/01/26 07:39:02;;;;;;;0.70;0.70;;;14.80;70.50;;;;;;5094870;28;20028;-74
2024/01/26 07:41:28;;;;;;;2.17;1.50;;;14.80;70.70;;;;;;5095027;28;20040;-72
2024/01/26 07:43:53;;;;;;;1.77;1.15;;;14.80;70.50;;;;;;5095014;28;20377;-74
2024/01/26 07:46:19;;;;;;;0.50;0.50;;;14.80;70.30;;;;;;5095236;28;20044;-72
2024/01/26 07:48:44;;;;;;;0.60;0.60;;;14.70;70.30;;;;;;5094640;28;20479;-71
2024/01/26 07:51:10;;;;;;;0.60;0.60;;;14.70;70.40;;;;;;5093905;28;20122;-73
2024/01/26 07:53:35;;;;;;;0.82;0.82;;;14.60;70.40;;;;;;5094563;28;20078;-72
2024/01/26 07:56:01;;;;;;;0.98;0.98;;;14.60;70.40;;;;;;5093353;28;20514;-72
2024/01/26 07:58:26;;;;;;;0.80;0.80;;;14.60;70.50;;;;;;5094669;28;20043;-72
2024/01/26 08:00:53;;;;;;;0.50;0.50;;;14.50;70.70;;;;;;5094734;28;20062;-72
2024/01/26 08:03:18;;;;;;;0.80;0.80;;;14.50;70.70;;;;;;5094650;28;20449;-72
2024/01/26 08:05:44;;;;;;;0.85;0.73;;;14.50;70.70;;;;;;5094967;28;20059;-72
2024/01/26 08:08:09;;;;;;;0.63;0.63;;;14.50;70.80;;;;;;5094337;28;20032;-73
2024/01/26 08:10:37;;;;;;;0.50;0.50;;;14.40;70.90;;;;;;5094686;28;20050;-73
2024/01/26 08:13:03;;;;;;;1.67;1.58;;;14.40;70.90;;;;;;5095300;28;20097;-72
2024/01/26 08:15:29;;;;;;;1.15;1.10;;;14.40;71.10;;;;;;5095781;28;20024;-72
2024/01/26 08:17:54;;;;;;;1.52;1.42;;;14.40;71.10;;;;;;5095100;28;20040;-72
2024/01/26 08:20:20;;;;;;;0.50;0.50;;;14.40;71.10;;;;;;5094794;28;20043;-72
2024/01/26 08:22:45;;;;;;;0.73;0.73;;;14.40;71.30;;;;;;5095818;28;20035;-73
2024/01/26 08:25:11;;;;;;;0.65;0.65;;;14.40;71.10;;;;;;5095778;28;20032;-73
2024/01/26 08:27:36;;;;;;;0.40;0.40;;;14.40;71.10;;;;;;5095303;28;20032;-73
2024/01/26 08:30:03;;;;;;;0.70;0.70;;;14.30;71.20;;;;;;5094846;28;20050;-74
2024/01/26 08:32:29;;;;;;;1.25;1.15;;;14.30;71.30;;;;;;5095723;28;20558;-75
2024/01/26 08:34:56;;;;;;;1.70;1.60;;;14.30;71.30;;;;;;5095235;28;20052;-75
2024/01/26 08:37:23;;;;;;;0.60;0.60;;;14.30;71.40;;;;;;5094937;28;20062;-75
2024/01/26 08:39:48;;;;;;;0.52;0.52;;;14.30;71.40;;;;;;5093416;28;20032;-73
2024/01/26 08:42:14;;;;;;;0.73;0.73;;;14.30;71.40;;;;;;5094755;28;20058;-73
2024/01/26 08:44:39;;;;;;;0.80;0.80;;;14.30;71.50;;;;;;5094472;28;20090;-73
2024/01/26 08:47:05;;;;;;;0.88;0.88;;;14.30;71.60;;;;;;5094802;28;20129;-73
2024/01/26 08:49:31;;;;;;;0.70;0.70;;;14.40;71.60;;;;;;5094234;28;20513;-72
2024/01/26 08:51:57;;;;;;;0.40;0.40;;;14.40;71.70;;;;;;5093269;28;20031;-73
2024/01/26 08:54:24;;;;;;;0.70;0.70;;;14.40;71.60;;;;;;5093996;28;20027;-72
2024/01/26 08:56:49;;;;;;;0.50;0.50;;;14.40;71.60;;;;;;5094897;28;20073;-73
2024/01/26 08:59:15;;;;;;;0.55;0.55;;;14.40;71.70;;;;;;5093906;28;20032;-70
2024/01/26 09:01:40;;;;;;;0.60;0.60;;;14.40;71.80;;;;;;5092960;28;20103;-71
2024/01/26 09:04:06;;;;;;;0.50;0.50;;;14.40;71.70;;;;;;5092676;28;20036;-71
2024/01/26 09:06:32;;;;;;;0.50;0.50;;;14.40;71.70;;;;;;5092826;28;20035;-70
2024/01/26 09:08:58;;;;;;;0.85;0.85;;;14.40;71.80;;;;;;5091677;28;20107;-70
2024/01/26 09:11:23;;;;;;;0.50;0.50;;;14.40;71.80;;;;;;5093397;28;20103;-71
2024/01/26 09:13:49;;;;;;;0.60;0.60;;;14.40;71.80;;;;;;5092701;28;20479;-71
2024/01/26 09:16:15;;;;;;;1.10;1.05;;;14.40;71.80;;;;;;5093031;28;20472;-71
2024/01/26 09:18:40;;;;;;;0.47;0.47;;;14.40;71.80;;;;;;5092657;28;20039;-71
2024/01/26 09:21:10;;;;;;;0.50;0.50;;;14.40;71.90;;;;;;5092826;28;20464;-70
2024/01/26 09:23:36;;;;;;;0.50;0.50;;;14.50;72.00;;;;;;5092913;28;20034;-71
2024/01/26 09:26:02;;;;;;;0.70;0.70;;;14.50;72.10;;;;;;5092743;28;20503;-70
2024/01/26 09:28:27;;;;;;;0.40;0.40;;;14.50;72.10;;;;;;5091258;28;20503;-71
2024/01/26 09:30:53;;;;;;;0.50;0.50;;;14.50;72.10;;;;;;5091948;28;20024;-71
2024/01/26 09:33:18;;;;;;;0.60;0.60;;;14.50;72.10;;;;;;5092273;28;20036;-69
2024/01/26 09:35:44;;;;;;;0.50;0.50;;;14.50;72.20;;;;;;5092454;28;20360;-70
2024/01/26 09:38:09;;;;;;;0.45;0.45;;;14.50;72.30;;;;;;5092216;28;20031;-70
2024/01/26 09:40:35;;;;;;;0.52;0.52;;;14.50;72.30;;;;;;5092436;28;20027;-70
2024/01/26 09:43:00;;;;;;;0.50;0.50;;;14.60;72.20;;;;;;5092106;28;20518;-70
2024/01/26 09:45:26;;;;;;;0.50;0.50;;;14.60;72.30;;;;;;5092675;28;20031;-70
2024/01/26 09:47:52;;;;;;;0.60;0.60;;;14.60;72.30;;;;;;5091947;28;20063;-69
2024/01/26 09:50:21;;;;;;;1.05;1.02;;;14.70;72.40;;;;;;5092083;28;20024;-69
2024/01/26 09:52:47;;;;;;;0.40;0.40;;;14.70;72.20;;;;;;5091938;28;20510;-70
2024/01/26 09:55:13;;;;;;;0.50;0.50;;;14.70;72.40;;;;;;5092105;28;20467;-70
2024/01/26 09:57:39;;;;;;;0.50;0.50;;;14.70;72.50;;;;;;5092068;28;20399;-70
2024/01/26 10:00:08;;;;;;;0.60;0.60;;;14.70;72.50;;;;;;5091845;28;20036;-69
2024/01/26 10:02:33;;;;;;;0.80;0.80;;;14.80;72.60;;;;;;5092163;28;20094;-71
2024/01/26 10:04:59;;;;;;;0.93;0.93;;;14.80;72.60;;;;;;5091818;28;20157;-70
2024/01/26 10:07:24;;;;;;;0.60;0.60;;;14.80;72.60;;;;;;5091736;28;20043;-70
2024/01/26 10:09:50;;;;;;;0.52;0.52;;;14.90;72.80;;;;;;5092708;28;20103;-72
2024/01/26 10:12:16;;;;;;;0.40;0.40;;;15.00;72.80;;;;;;5092498;28;20085;-72
2024/01/26 10:14:41;;;;;;;0.50;0.50;;;15.00;72.80;;;;;;5092782;28;20024;-72
2024/01/26 10:17:07;;;;;;;0.52;0.52;;;15.10;72.70;;;;;;5092261;28;20081;-72
2024/01/26 10:19:34;;;;;;;0.50;0.50;;;15.10;72.80;;;;;;5092523;28;20063;-72
2024/01/26 10:22:00;;;;;;;1.10;1.00;;;15.20;72.70;;;;;;5091620;28;20543;-72
2024/01/26 10:24:26;;;;;;;0.40;0.40;;;15.20;72.70;;;;;;5091604;28;20082;-72
2024/01/26 10:26:53;;;;;;;0.50;0.50;;;15.20;72.70;;;;;;5091406;28;20040;-72
2024/01/26 10:29:19;;;;;;;0.60;0.60;;;15.20;72.60;;;;;;5091571;28;20061;-72
2024/01/26 10:31:45;;;;;;;0.82;0.82;;;15.20;72.60;;;;;;5091670;28;20032;-74
2024/01/26 10:34:15;;;;;;;0.68;0.68;;;15.30;72.90;;;;;;5091271;28;20038;-71
2024/01/26 10:36:46;;;;;;;0.70;0.70;;;15.40;73.00;;;;;;5091571;28;20422;-72
2024/01/26 10:39:23;;;;;;;0.50;0.50;;;15.50;73.10;;;;;;5091365;28;20027;-72
2024/01/26 10:41:52;;;;;;;0.98;0.98;;;15.60;73.10;;;;;;5091297;28;20451;-72
2024/01/26 10:44:18;;;;;;;0.50;0.50;;;15.70;72.90;;;;;;5091311;28;20106;-72
2024/01/26 10:46:45;;;;;;;0.55;0.55;;;15.70;73.00;;;;;;5091594;28;20124;-71
2024/01/26 10:49:12;;;;;;;0.50;0.50;;;15.80;72.80;;;;;;5091350;28;20114;-71
2024/01/26 10:51:41;;;;;;;0.65;0.65;;;15.90;72.70;;;;;;5091396;28;20479;-71
2024/01/26 10:54:10;;;;;;;0.70;0.70;;;16.00;72.50;;;;;;5091274;28;20012;-72
2024/01/26 10:56:37;;;;;;;0.57;0.57;;;15.90;72.40;;;;;;5091392;28;20418;-72
2024/01/26 10:59:03;;;;;;;0.60;0.60;;;16.00;72.30;;;;;;5091449;28;20388;-72
2024/01/26 11:01:29;;;;;;;0.50;0.50;;;16.00;72.10;;;;;;5091891;28;20036;-72
2024/01/26 11:03:58;;;;;;;0.43;0.43;;;15.90;72.10;;;;;;5093118;28;20016;-72
2024/01/26 11:06:26;;;;;;;0.52;0.52;;;15.90;72.20;;;;;;5094004;28;20032;-72
2024/01/26 11:08:59;;;;;;;0.60;0.60;;;15.80;72.20;;;;;;5092450;28;20036;-72
2024/01/26 11:11:25;;;;;;;0.50;0.50;;;15.80;72.40;;;;;;5092634;28;20084;-72
2024/01/26 11:13:54;;;;;;;0.50;0.50;;;15.80;72.30;;;;;;5092477;28;20423;-72
2024/01/26 11:16:24;;;;;;;0.60;0.60;;;15.80;72.50;;;;;;5092030;28;20360;-72
2024/01/26 11:18:57;;;;;;;0.75;0.75;;;15.80;72.30;;;;;;5092814;28;20115;-72
2024/01/26 11:21:24;;;;;;;0.70;0.70;;;15.80;72.50;;;;;;5092523;28;20136;-72
2024/01/26 11:23:49;;;;;;;0.50;0.50;;;15.90;72.80;;;;;;5091755;28;20039;-72
2024/01/26 11:26:15;;;;;;;0.50;0.50;;;15.80;72.70;;;;;;5093092;28;20429;-72
2024/01/26 11:28:41;;;;;;;0.50;0.50;;;15.90;72.70;;;;;;5092410;28;20028;-72
2024/01/26 11:31:07;;;;;;;0.73;0.73;;;15.90;72.70;;;;;;5092885;28;20039;-72
2024/01/26 11:33:39;;;;;;;0.50;0.50;;;15.90;72.80;;;;;;5093291;28;20024;-72
2024/01/26 11:36:06;;;;;;;0.40;0.40;;;15.90;72.70;;;;;;5093357;28;20024;-73
2024/01/26 11:38:32;;;;;;;0.50;0.50;;;15.90;72.60;;;;;;5091351;28;20082;-72
2024/01/26 11:40:58;;;;;;;0.50;0.50;;;15.90;72.60;;;;;;5090840;28;20784;-72
2024/01/26 11:43:28;;;;;;;0.70;0.70;;;15.80;72.20;;;;;;5089841;28;20032;-72
2024/01/26 11:45:55;;;;;;;0.50;0.50;;;15.70;70.30;;;;;;5092061;28;20124;-72
2024/01/26 11:48:21;;;;;;;0.55;0.55;;;15.20;68.50;;;;;;5091117;28;20168;-72
2024/01/26 11:50:47;;;;;;;0.50;0.50;;;14.80;68.70;;;;;;5091069;28;20020;-72
2024/01/26 11:53:14;;;;;;;0.50;0.50;;;14.60;69.40;;;;;;5090899;28;20051;-71
2024/01/26 11:55:41;;;;;;;0.50;0.50;;;14.50;69.40;;;;;;5094079;28;20417;-71
2024/01/26 11:58:08;;;;;;;0.50;0.50;;;14.40;69.40;;;;;;5094673;28;20020;-71
2024/01/26 12:00:37;;;;;;;0.50;0.50;;;14.30;69.60;;;;;;5094767;28;20039;-71
2024/01/26 12:03:07;;;;;;;0.50;0.50;;;14.30;69.80;;;;;;5094634;28;20032;-71
2024/01/26 12:05:33;;;;;;;0.45;0.45;;;14.20;70.10;;;;;;5095243;28;20047;-71
2024/01/26 12:08:00;;;;;;;0.50;0.50;;;14.20;70.30;;;;;;5094760;28;20051;-72
2024/01/26 12:10:25;;;;;;;0.47;0.47;;;14.20;70.50;;;;;;5094868;28;20034;-71
2024/01/26 12:12:51;;;;;;;0.57;0.57;;;14.20;70.40;;;;;;5093945;28;20111;-71
2024/01/26 12:15:17;;;;;;;0.50;0.50;;;14.20;70.40;;;;;;5094153;28;20801;-71
2024/01/26 12:17:43;;;;;;;0.55;0.55;;;14.30;71.50;;;;;;5094046;28;20035;-71
2024/01/26 12:20:09;;;;;;;0.50;0.50;;;14.40;71.30;;;;;;5094038;28;20032;-71
2024/01/26 12:22:36;;;;;;;0.60;0.60;;;14.60;71.40;;;;;;5093781;28;20024;-71
2024/01/26 12:25:07;;;;;;;0.40;0.40;;;14.70;71.30;;;;;;5093725;28;20028;-71
2024/01/26 12:27:33;;;;;;;0.50;0.50;;;14.80;71.30;;;;;;5093816;28;20479;-71
2024/01/26 12:29:59;;;;;;;0.60;0.60;;;14.90;70.80;;;;;;5093888;28;20042;-71
2024/01/26 12:32:25;;;;;;;0.50;0.50;;;14.90;70.70;;;;;;5093886;28;20024;-71
2024/01/26 12:34:50;;;;;;;0.50;0.50;;;15.00;70.30;;;;;;5093588;28;20074;-71
2024/01/26 12:37:16;;;;;;;0.57;0.57;;;14.90;70.40;;;;;;5092561;28;20388;-71
2024/01/26 12:39:41;;;;;;;0.60;0.60;;;14.90;70.60;;;;;;5093553;28;20114;-71
2024/01/26 12:42:07;;;;;;;0.50;0.50;;;15.00;70.30;;;;;;5093708;28;20032;-71